createdAt,value
2023-01-29T00:03:15.416Z,98217.00
2023-01-29T00:08:16.331Z,98217.00
2023-01-29T00:13:17.503Z,98226.00
2023-01-29T00:18:18.225Z,98224.00
2023-01-29T00:23:19.114Z,98235.00
2023-01-29T00:28:19.889Z,98243.00
2023-01-29T00:33:20.789Z,98248.00
2023-01-29T00:38:21.648Z,98255.00
2023-01-29T00:43:41.367Z,98245.00
2023-01-29T00:48:42.157Z,98246.00
2023-01-29T00:53:44.791Z,98249.00
2023-01-29T00:58:45.528Z,98248.00
2023-01-29T01:03:46.307Z,98233.00
2023-01-29T01:09:05.658Z,98239.00
2023-01-29T01:14:06.495Z,98241.00
2023-01-29T01:19:07.440Z,98226.00
2023-01-29T01:24:08.311Z,98227.00
2023-01-29T01:29:09.214Z,98217.00
2023-01-29T01:34:10.106Z,98204.00
2023-01-29T01:39:10.986Z,98192.00
2023-01-29T01:44:49.650Z,98177.00
2023-01-29T01:49:52.524Z,98170.00
2023-01-29T01:54:53.545Z,98175.00
2023-01-29T02:00:09.200Z,98172.00
2023-01-29T02:05:32.611Z,98165.00
2023-01-29T02:10:42.536Z,98169.00
2023-01-29T02:15:47.898Z,98156.00
2023-01-29T02:21:49.943Z,98157.00
2023-01-29T02:27:31.145Z,98161.00
2023-01-29T02:32:53.800Z,98169.00
2023-01-29T02:38:08.692Z,98172.00
2023-01-29T02:43:28.230Z,98176.00
2023-01-29T02:48:40.970Z,98196.00
2023-01-29T02:54:10.217Z,98204.00
2023-01-29T02:59:19.090Z,98206.00
2023-01-29T03:04:26.786Z,98199.00
2023-01-29T03:09:34.159Z,98199.00
2023-01-29T03:14:57.522Z,98180.00
2023-01-29T03:20:00.097Z,98182.00
2023-01-29T03:25:23.044Z,98181.00
2023-01-29T03:30:44.966Z,98177.00
2023-01-29T03:36:16.020Z,98172.00
2023-01-29T03:41:33.927Z,98190.00
2023-01-29T03:46:41.778Z,98180.00
2023-01-29T03:52:14.897Z,98178.00
2023-01-29T03:57:41.970Z,98181.00
2023-01-29T04:04:32.249Z,98200.00
2023-01-29T04:09:42.345Z,98181.00
2023-01-29T04:14:46.151Z,98171.00
2023-01-29T04:19:47.733Z,98182.00
2023-01-29T04:24:50.390Z,98169.00
2023-01-29T04:30:35.477Z,98180.00
2023-01-29T04:35:52.456Z,98195.00
2023-01-29T04:41:21.163Z,98179.00
2023-01-29T04:47:17.676Z,98190.00
2023-01-29T04:52:28.770Z,98186.00
2023-01-29T05:01:03.989Z,98176.00
2023-01-29T05:06:07.340Z,98171.00
2023-01-29T05:11:08.866Z,98185.00
2023-01-29T05:16:16.212Z,98179.00
2023-01-29T05:21:18.917Z,98168.00
2023-01-29T05:26:39.251Z,98151.00
2023-01-29T05:31:43.804Z,98138.00
2023-01-29T05:36:44.873Z,98131.00
2023-01-29T05:41:45.762Z,98146.00
2023-01-29T05:46:46.574Z,98158.00
2023-01-29T05:51:47.359Z,98155.00
2023-01-29T05:56:48.149Z,98155.00
2023-01-29T06:01:48.993Z,98174.00
2023-01-29T06:06:50.020Z,98191.00
2023-01-29T06:11:50.786Z,98181.00
2023-01-29T06:16:51.553Z,98173.00
2023-01-29T06:21:52.291Z,98159.00
2023-01-29T06:26:53.096Z,98150.00
2023-01-29T06:31:54.215Z,98142.00
2023-01-29T06:36:55.061Z,98146.00
2023-01-29T06:41:55.904Z,98147.00
2023-01-29T06:46:56.664Z,98140.00
2023-01-29T06:51:57.445Z,98144.00
2023-01-29T06:56:58.285Z,98139.00
2023-01-29T07:01:59.113Z,98145.00
2023-01-29T07:06:59.930Z,98131.00
2023-01-29T07:12:01.014Z,98138.00
2023-01-29T07:17:02.144Z,98148.00
2023-01-29T07:22:03.240Z,98155.00
2023-01-29T07:27:05.409Z,98174.00
2023-01-29T07:32:07.250Z,98189.00
2023-01-29T07:37:08.103Z,98203.00
2023-01-29T07:42:08.859Z,98182.00
2023-01-29T07:47:09.656Z,98177.00
2023-01-29T07:52:10.409Z,98170.00
2023-01-29T07:57:12.094Z,98175.00
2023-01-29T08:02:13.145Z,98165.00
2023-01-29T08:07:14.286Z,98164.00
2023-01-29T08:12:15.436Z,98161.00
2023-01-29T08:17:16.256Z,98158.00
2023-01-29T08:22:17.155Z,98163.00
2023-01-29T08:27:17.978Z,98160.00
2023-01-29T08:32:18.936Z,98179.00
2023-01-29T08:37:19.755Z,98189.00
2023-01-29T08:42:20.515Z,98185.00
2023-01-29T08:47:21.312Z,98200.00
2023-01-29T08:52:22.051Z,98177.00
2023-01-29T08:57:22.871Z,98176.00
2023-01-29T09:02:23.812Z,98185.00
2023-01-29T09:07:24.612Z,98194.00
2023-01-29T09:12:25.551Z,98196.00
2023-01-29T09:17:26.335Z,98200.00
2023-01-29T09:22:27.594Z,98206.00
2023-01-29T09:27:28.507Z,98192.00
2023-01-29T09:38:03.128Z,98208.00
2023-01-29T09:43:13.073Z,98212.00
2023-01-29T09:48:14.025Z,98220.00
2023-01-29T09:53:48.896Z,98219.00
2023-01-29T09:58:49.844Z,98217.00
2023-01-29T10:04:17.456Z,98215.00
2023-01-29T10:10:13.428Z,98223.00
2023-01-29T10:16:12.595Z,98222.00
2023-01-29T10:21:32.050Z,98217.00
2023-01-29T10:26:35.237Z,98220.00
2023-01-29T10:31:39.831Z,98213.00
2023-01-29T10:36:46.541Z,98187.00
2023-01-29T10:42:43.336Z,98173.00
2023-01-29T10:48:06.619Z,98161.00
2023-01-29T10:53:35.426Z,98142.00
2023-01-29T11:02:54.314Z,98128.00
2023-01-29T11:08:19.120Z,98111.00
2023-01-29T11:13:23.576Z,98105.00
2023-01-29T11:18:24.309Z,98104.00
2023-01-29T11:23:31.742Z,98101.00
2023-01-29T11:28:47.538Z,98092.00
2023-01-29T11:33:51.630Z,98081.00
2023-01-29T11:39:14.668Z,98085.00
2023-01-29T11:44:30.116Z,98092.00
2023-01-29T11:49:33.989Z,98095.00
2023-01-29T11:54:45.880Z,98087.00
2023-01-29T11:59:50.981Z,98074.00
2023-01-29T12:04:54.739Z,98068.00
2023-01-29T12:09:57.928Z,98048.00
2023-01-29T12:15:03.529Z,98034.00
2023-01-29T12:20:14.276Z,98016.00
2023-01-29T12:26:43.879Z,98009.00
2023-01-29T12:31:58.206Z,97998.00
2023-01-29T12:37:12.941Z,97996.00
2023-01-29T12:42:22.277Z,97983.00
2023-01-29T12:47:30.736Z,97987.00
2023-01-29T12:52:46.563Z,97971.00
2023-01-29T12:57:58.148Z,97975.00
2023-01-29T13:03:12.730Z,97970.00
2023-01-29T13:09:36.969Z,97967.00
2023-01-29T13:14:47.173Z,97954.00
2023-01-29T13:19:54.900Z,97945.00
2023-01-29T13:25:04.638Z,97948.00
2023-01-29T13:30:07.475Z,97952.00
2023-01-29T13:35:16.658Z,97928.00
2023-01-29T13:40:24.932Z,97924.00
2023-01-29T13:45:42.664Z,97921.00
2023-01-29T13:50:45.709Z,97907.00
2023-01-29T13:55:46.475Z,97913.00
2023-01-29T14:00:47.945Z,97902.00
2023-01-29T14:05:59.869Z,97893.00
2023-01-29T14:12:54.736Z,97899.00
2023-01-29T14:18:20.337Z,97894.00
2023-01-29T14:24:57.046Z,97904.00
2023-01-29T14:30:01.800Z,97897.00
2023-01-29T14:35:16.011Z,97898.00
2023-01-29T14:40:23.387Z,97893.00
2023-01-29T14:45:49.356Z,97880.00
2023-01-29T14:50:52.674Z,97878.00
2023-01-29T14:56:15.008Z,97876.00
2023-01-29T15:01:38.356Z,97867.00
2023-01-29T15:06:46.477Z,97864.00
2023-01-29T15:14:43.718Z,97862.00
2023-01-29T15:19:48.488Z,97862.00
2023-01-29T15:25:07.179Z,97858.00
2023-01-29T15:30:16.348Z,97844.00
2023-01-29T15:35:30.262Z,97826.00
2023-01-29T15:40:31.533Z,97830.00
2023-01-29T15:45:34.335Z,97826.00
2023-01-29T15:50:40.251Z,97820.00
2023-01-29T15:55:41.745Z,97811.00
2023-01-29T16:00:52.884Z,97811.00
2023-01-29T16:05:54.599Z,97797.00
2023-01-29T16:10:58.898Z,97792.00
2023-01-29T16:16:02.326Z,97807.00
2023-01-29T16:21:12.068Z,97811.00
2023-01-29T16:26:24.170Z,97810.00
2023-01-29T16:31:28.344Z,97824.00
2023-01-29T16:36:29.322Z,97831.00
2023-01-29T16:41:36.069Z,97830.00
2023-01-29T16:46:45.360Z,97834.00
2023-01-29T16:51:46.362Z,97841.00
2023-01-29T16:56:49.132Z,97846.00
2023-01-29T17:01:50.063Z,97855.00
2023-01-29T17:06:56.985Z,97854.00
2023-01-29T17:12:02.962Z,97848.00
2023-01-29T17:17:15.447Z,97850.00
2023-01-29T17:22:16.305Z,97857.00
2023-01-29T17:27:21.909Z,97870.00
2023-01-29T17:32:24.305Z,97864.00
2023-01-29T17:37:25.165Z,97879.00
2023-01-29T17:42:27.995Z,97877.00
2023-01-29T17:47:28.785Z,97873.00
2023-01-29T17:52:31.379Z,97871.00
2023-01-29T17:57:32.834Z,97871.00
2023-01-29T18:02:33.704Z,97866.00
2023-01-29T18:07:36.603Z,97856.00
2023-01-29T18:12:37.331Z,97838.00
2023-01-29T18:17:38.891Z,97839.00
2023-01-29T18:22:39.698Z,97833.00
2023-01-29T18:27:40.724Z,97829.00
2023-01-29T18:32:41.706Z,97828.00
2023-01-29T18:37:43.031Z,97827.00
2023-01-29T18:42:44.416Z,97807.00
2023-01-29T18:47:45.478Z,97809.00
2023-01-29T18:52:46.328Z,97814.00
2023-01-29T18:58:27.466Z,97818.00
2023-01-29T19:03:36.617Z,97815.00
2023-01-29T19:08:38.622Z,97822.00
2023-01-29T19:13:40.062Z,97811.00
2023-01-29T19:18:41.198Z,97810.00
2023-01-29T19:23:42.908Z,97806.00
2023-01-29T19:28:44.187Z,97796.00
2023-01-29T19:33:45.018Z,97785.00
2023-01-29T19:38:45.942Z,97785.00
2023-01-29T19:43:47.447Z,97783.00
2023-01-29T19:48:48.559Z,97778.00
2023-01-29T19:53:49.369Z,97778.00
2023-01-29T19:58:56.850Z,97772.00
2023-01-29T20:03:57.910Z,97759.00
2023-01-29T20:09:01.395Z,97757.00
2023-01-29T20:14:02.161Z,97749.00
2023-01-29T20:19:13.218Z,97738.00
2023-01-29T20:24:15.468Z,97740.00
2023-01-29T20:29:16.335Z,97744.00
2023-01-29T20:34:17.113Z,97737.00
2023-01-29T20:39:18.025Z,97729.00
2023-01-29T20:44:18.764Z,97721.00
2023-01-29T20:49:20.986Z,97723.00
2023-01-29T20:54:21.882Z,97719.00
2023-01-29T20:59:23.294Z,97733.00
2023-01-29T21:04:24.149Z,97710.00
2023-01-29T21:09:24.915Z,97701.00
2023-01-29T21:14:25.660Z,97712.00
2023-01-29T21:19:27.023Z,97703.00
2023-01-29T21:24:27.904Z,97708.00
2023-01-29T21:29:28.798Z,97701.00
2023-01-29T21:34:29.548Z,97703.00
2023-01-29T21:39:30.435Z,97690.00
2023-01-29T21:44:33.453Z,97672.00
2023-01-29T21:49:34.348Z,97676.00
2023-01-29T21:54:35.086Z,97665.00
2023-01-29T21:59:36.622Z,97652.00
2023-01-29T22:04:37.349Z,97642.00
2023-01-29T22:09:38.237Z,97637.00
2023-01-29T22:14:41.035Z,97630.00
2023-01-29T22:19:42.741Z,97638.00
2023-01-29T22:24:45.727Z,97647.00
2023-01-29T22:29:46.482Z,97658.00
2023-01-29T22:34:47.265Z,97652.00
2023-01-29T22:39:47.993Z,97636.00
2023-01-29T22:44:48.851Z,97623.00
2023-01-29T22:49:51.560Z,97601.00
2023-01-29T22:54:52.638Z,97604.00
2023-01-29T22:59:53.758Z,97613.00
2023-01-29T23:04:54.526Z,97586.00
2023-01-29T23:09:55.315Z,97568.00
2023-01-29T23:14:56.085Z,97564.00
2023-01-29T23:19:56.868Z,97579.00
2023-01-29T23:24:57.654Z,97581.00
2023-01-29T23:29:58.495Z,97585.00
2023-01-29T23:34:59.293Z,97594.00
2023-01-29T23:40:00.138Z,97606.00
2023-01-29T23:45:00.834Z,97601.00
2023-01-29T23:50:01.810Z,97586.00
2023-01-29T23:55:02.822Z,97581.00
